createdAt,value
2019-03-16T00:00:06.491Z,63.51
2019-03-16T00:00:47.056Z,63.7
2019-03-16T00:01:27.613Z,64.37
2019-03-16T00:02:08.179Z,63.6
2019-03-16T00:02:48.762Z,63.89
2019-03-16T00:03:29.358Z,63.51
2019-03-16T00:04:09.919Z,63.79
2019-03-16T00:04:50.493Z,64.46
2019-03-16T00:05:31.070Z,63.99
2019-03-16T00:06:11.657Z,63.23
2019-03-16T00:06:52.211Z,62.94
2019-03-16T00:07:33.441Z,62.75
2019-03-16T00:08:13.405Z,62.75
2019-03-16T00:08:53.947Z,62.27
2019-03-16T00:09:34.509Z,62.56
2019-03-16T00:10:15.069Z,62.75
2019-03-16T00:10:55.625Z,63.04
2019-03-16T00:11:36.194Z,62.75
2019-03-16T00:12:16.763Z,63.04
2019-03-16T00:12:57.313Z,63.04
2019-03-16T00:13:37.864Z,62.75
2019-03-16T00:14:18.435Z,63.04
2019-03-16T00:14:58.972Z,62.72
2019-03-16T00:15:39.546Z,63.29
2019-03-16T00:16:20.114Z,63.48
2019-03-16T00:17:00.668Z,63.2
2019-03-16T00:17:41.282Z,63.29
2019-03-16T00:18:21.811Z,63.76
2019-03-16T00:19:02.369Z,63.67
2019-03-16T00:19:42.954Z,64.05
2019-03-16T00:20:23.509Z,63.76
2019-03-16T00:21:04.067Z,63.86
2019-03-16T00:21:44.662Z,63.76
2019-03-16T00:22:25.216Z,63.86
2019-03-16T00:23:05.792Z,63.86
2019-03-16T00:23:46.348Z,63.48
2019-03-16T00:24:26.925Z,63.86
2019-03-16T00:25:07.512Z,63.76
2019-03-16T00:25:48.069Z,63.67
2019-03-16T00:26:28.627Z,63.86
2019-03-16T00:27:09.186Z,64.14
2019-03-16T00:27:49.758Z,64.05
2019-03-16T00:28:30.316Z,64.34
2019-03-16T00:29:10.876Z,64.53
2019-03-16T00:29:51.426Z,64.43
2019-03-16T00:30:31.978Z,64.43
2019-03-16T00:31:12.544Z,64.24
2019-03-16T00:31:53.122Z,64.34
2019-03-16T00:32:33.681Z,64.43
2019-03-16T00:33:14.255Z,64.34
2019-03-16T00:33:54.819Z,64.53
2019-03-16T00:34:35.384Z,65
2019-03-16T00:35:15.967Z,64.53
2019-03-16T00:35:56.565Z,64.53
2019-03-16T00:36:37.118Z,64.9
2019-03-16T00:37:17.690Z,65
2019-03-16T00:37:58.252Z,64.9
2019-03-16T00:38:38.817Z,65
2019-03-16T00:39:19.405Z,65
2019-03-16T00:40:00.683Z,65
2019-03-16T00:40:41.336Z,65.47
2019-03-16T00:41:21.897Z,65.28
2019-03-16T00:42:02.459Z,65.28
2019-03-16T00:42:43.034Z,65
2019-03-16T00:43:23.591Z,65
2019-03-16T00:44:04.162Z,65.38
2019-03-16T00:44:44.724Z,65.38
2019-03-16T00:45:25.287Z,65.38
2019-03-16T00:46:05.848Z,65
2019-03-16T00:46:47.044Z,65.28
2019-03-16T00:47:26.963Z,65.57
2019-03-16T00:48:07.513Z,65.47
2019-03-16T00:48:48.072Z,65.76
2019-03-16T00:49:28.631Z,65.76
2019-03-16T00:50:09.173Z,65.57
2019-03-16T00:50:49.737Z,65.47
2019-03-16T00:51:30.301Z,65.86
2019-03-16T00:52:10.879Z,65.67
2019-03-16T00:52:51.448Z,65.76
2019-03-16T00:53:32.050Z,65.86
2019-03-16T00:54:12.569Z,65.86
2019-03-16T00:54:53.127Z,65.67
2019-03-16T00:55:33.711Z,65.76
2019-03-16T00:56:14.286Z,65.76
2019-03-16T00:56:54.841Z,65.76
2019-03-16T00:57:35.429Z,65.86
2019-03-16T00:58:16.004Z,65.76
2019-03-16T00:58:56.557Z,65.95
2019-03-16T00:59:37.113Z,66.05
2019-03-16T01:00:17.662Z,65.47
2019-03-16T01:00:58.240Z,66.05
2019-03-16T01:01:38.831Z,66.01
2019-03-16T01:02:26.766Z,66.2
2019-03-16T01:02:59.992Z,66.3
2019-03-16T01:03:40.523Z,66.39
2019-03-16T01:04:21.084Z,66.01
2019-03-16T01:05:01.635Z,66.3
2019-03-16T01:05:42.226Z,66.11
2019-03-16T01:06:22.777Z,65.92
2019-03-16T01:07:03.320Z,66.39
2019-03-16T01:07:43.910Z,66.58
2019-03-16T01:08:24.432Z,66.87
2019-03-16T01:09:04.994Z,66.96
2019-03-16T01:09:45.554Z,66.77
2019-03-16T01:10:26.126Z,67.06
2019-03-16T01:11:06.682Z,66.96
2019-03-16T01:11:47.239Z,67.15
2019-03-16T01:12:27.805Z,66.87
2019-03-16T01:13:08.368Z,67
2019-03-16T01:13:48.940Z,66.96
2019-03-16T01:14:29.501Z,67.28
2019-03-16T01:15:10.065Z,67
2019-03-16T01:15:50.633Z,67.09
2019-03-16T01:16:31.206Z,67.19
2019-03-16T01:17:11.766Z,67.06
2019-03-16T01:17:52.322Z,67.09
2019-03-16T01:18:32.960Z,67.09
2019-03-16T01:19:13.455Z,67.09
2019-03-16T01:19:54.017Z,67.19
2019-03-16T01:20:34.583Z,67.06
2019-03-16T01:21:15.160Z,67.63
2019-03-16T01:21:55.726Z,67.66
2019-03-16T01:22:36.279Z,67.66
2019-03-16T01:23:17.655Z,67.47
2019-03-16T01:23:57.408Z,67.76
2019-03-16T01:24:37.964Z,67.66
2019-03-16T01:25:18.527Z,68.23
2019-03-16T01:25:59.100Z,68.13
2019-03-16T01:26:39.656Z,67.85
2019-03-16T01:27:20.221Z,68.04
2019-03-16T01:28:00.797Z,67.85
2019-03-16T01:28:41.355Z,68.13
2019-03-16T01:29:21.935Z,68.1
2019-03-16T01:30:02.508Z,68.13
2019-03-16T01:30:43.065Z,68.33
2019-03-16T01:31:23.628Z,68.13
2019-03-16T01:32:04.184Z,68.42
2019-03-16T01:32:44.755Z,68.33
2019-03-16T01:33:25.329Z,68.58
2019-03-16T01:34:05.898Z,68.61
2019-03-16T01:34:46.455Z,68.77
2019-03-16T01:35:27.019Z,68.58
2019-03-16T01:36:07.589Z,68.71
2019-03-16T01:36:48.152Z,68.52
2019-03-16T01:37:28.706Z,68.67
2019-03-16T01:38:09.254Z,68.58
2019-03-16T01:38:49.863Z,68.67
2019-03-16T01:39:30.376Z,68.58
2019-03-16T01:40:10.946Z,68.58
2019-03-16T01:40:51.505Z,68.39
2019-03-16T01:41:32.061Z,68.58
2019-03-16T01:42:12.619Z,68.96
2019-03-16T01:42:53.176Z,68.77
2019-03-16T01:43:33.737Z,68.77
2019-03-16T01:44:14.336Z,68.77
2019-03-16T01:44:54.846Z,69.05
2019-03-16T01:45:35.414Z,69.05
2019-03-16T01:46:15.975Z,69.05
2019-03-16T01:46:56.541Z,69.34
2019-03-16T01:47:37.099Z,69.24
2019-03-16T01:48:17.669Z,69.15
2019-03-16T01:48:58.234Z,69.05
2019-03-16T01:49:38.790Z,69.53
2019-03-16T01:50:21.591Z,69.53
2019-03-16T01:50:59.947Z,69.71
2019-03-16T01:51:40.523Z,69.43
2019-03-16T01:52:21.083Z,69.24
2019-03-16T01:53:01.642Z,69.53
2019-03-16T01:53:42.199Z,69.43
2019-03-16T01:54:22.751Z,69.34
2019-03-16T01:55:03.324Z,69.53
2019-03-16T01:55:43.901Z,69.15
2019-03-16T01:56:24.456Z,69.24
2019-03-16T01:57:05.039Z,70.1
2019-03-16T01:57:45.591Z,69.53
2019-03-16T01:58:26.169Z,69.43
2019-03-16T01:59:06.726Z,69.34
2019-03-16T01:59:47.292Z,69.43
2019-03-16T02:00:27.857Z,69.24
2019-03-16T02:01:08.416Z,70
2019-03-16T02:01:49.526Z,69.43
2019-03-16T02:02:29.583Z,69.05
2019-03-16T02:03:10.159Z,69.53
2019-03-16T02:03:50.714Z,70.1
2019-03-16T02:04:31.278Z,69.91
2019-03-16T02:05:11.834Z,69.91
2019-03-16T02:05:52.401Z,69.91
2019-03-16T02:06:32.982Z,69.71
2019-03-16T02:07:13.592Z,69.91
2019-03-16T02:07:54.102Z,69.81
2019-03-16T02:08:34.669Z,70.1
2019-03-16T02:09:15.229Z,70
2019-03-16T02:09:55.807Z,70
2019-03-16T02:10:36.430Z,70
2019-03-16T02:11:16.931Z,69.81
2019-03-16T02:12:00.346Z,70.1
2019-03-16T02:12:38.046Z,69.91
2019-03-16T02:13:18.610Z,70.1
2019-03-16T02:13:59.174Z,69.71
2019-03-16T02:14:39.733Z,70.57
2019-03-16T02:15:20.310Z,70.57
2019-03-16T02:16:10.618Z,70.38
2019-03-16T02:16:41.418Z,70.1
2019-03-16T02:17:21.975Z,70
2019-03-16T02:18:02.537Z,70.67
2019-03-16T02:18:43.107Z,69.91
2019-03-16T02:19:23.668Z,70
2019-03-16T02:20:04.225Z,70
2019-03-16T02:20:44.787Z,69.71
2019-03-16T02:21:25.356Z,69.81
2019-03-16T02:22:05.909Z,69.91
2019-03-16T02:22:46.465Z,69.81
2019-03-16T02:23:27.021Z,69.71
2019-03-16T02:24:07.574Z,69.71
2019-03-16T02:24:48.131Z,69.81
2019-03-16T02:25:28.715Z,69.62
2019-03-16T02:26:09.275Z,69.91
2019-03-16T02:26:49.837Z,70.1
2019-03-16T02:27:30.403Z,70.1
2019-03-16T02:28:10.965Z,69.62
2019-03-16T02:28:51.529Z,69.91
2019-03-16T02:29:32.075Z,69.91
2019-03-16T02:30:12.697Z,69.24
2019-03-16T02:30:53.225Z,69.34
2019-03-16T02:31:33.798Z,69.53
2019-03-16T02:32:14.357Z,69.43
2019-03-16T02:33:10.984Z,69.43
2019-03-16T02:33:35.478Z,69.24
2019-03-16T02:34:16.037Z,70
2019-03-16T02:34:56.611Z,70.19
2019-03-16T02:35:37.165Z,70.1
2019-03-16T02:36:17.722Z,70.1
2019-03-16T02:36:58.286Z,70.19
2019-03-16T02:37:38.904Z,70.1
2019-03-16T02:38:19.433Z,69.81
2019-03-16T02:38:59.979Z,69.71
2019-03-16T02:39:41.020Z,69.91
2019-03-16T02:40:21.590Z,69.91
2019-03-16T02:41:02.144Z,69.81
2019-03-16T02:41:42.723Z,69.81
2019-03-16T02:42:23.264Z,70
2019-03-16T02:43:03.826Z,70
2019-03-16T02:43:44.391Z,69.91
2019-03-16T02:44:24.951Z,69.91
2019-03-16T02:45:05.521Z,69.71
2019-03-16T02:45:46.071Z,69.91
2019-03-16T02:46:26.625Z,69.71
2019-03-16T02:47:07.185Z,70
2019-03-16T02:47:47.751Z,69.43
2019-03-16T02:48:28.316Z,69.53
2019-03-16T02:49:08.891Z,69.05
2019-03-16T02:49:49.458Z,69.15
2019-03-16T02:50:30.009Z,68.96
2019-03-16T02:51:10.578Z,69.24
2019-03-16T02:51:51.143Z,69.24
2019-03-16T02:52:31.697Z,69.53
2019-03-16T02:53:12.264Z,69.34
2019-03-16T02:53:52.815Z,69.53
2019-03-16T02:54:33.402Z,69.24
2019-03-16T02:55:13.969Z,69.53
2019-03-16T02:55:54.517Z,69.81
2019-03-16T02:56:35.113Z,70
2019-03-16T02:57:15.680Z,69.91
2019-03-16T02:57:56.256Z,70
2019-03-16T02:58:36.811Z,70
2019-03-16T02:59:17.398Z,69.81
2019-03-16T02:59:57.989Z,70.1
2019-03-16T03:00:38.541Z,69.62
2019-03-16T03:01:19.102Z,69.91
2019-03-16T03:01:59.659Z,69.53
2019-03-16T03:02:40.233Z,69.62
2019-03-16T03:03:28.926Z,69.81
2019-03-16T03:04:01.370Z,70
2019-03-16T03:04:45.594Z,70.29
2019-03-16T03:05:22.510Z,70
2019-03-16T03:06:03.063Z,70
2019-03-16T03:06:43.647Z,70.19
2019-03-16T03:07:24.212Z,70.19
2019-03-16T03:08:04.777Z,70.19
2019-03-16T03:08:45.314Z,70.38
2019-03-16T03:09:25.879Z,70.19
2019-03-16T03:10:06.445Z,70
2019-03-16T03:10:47.010Z,70.48
2019-03-16T03:11:27.591Z,70.38
2019-03-16T03:12:08.131Z,69.62
2019-03-16T03:12:48.701Z,70.29
2019-03-16T03:13:29.270Z,70
2019-03-16T03:14:09.826Z,70.67
2019-03-16T03:14:50.383Z,70.67
2019-03-16T03:15:30.966Z,70.67
2019-03-16T03:16:11.515Z,70.38
2019-03-16T03:16:52.073Z,70.86
2019-03-16T03:17:32.627Z,70.76
2019-03-16T03:18:13.226Z,70.86
2019-03-16T03:18:53.766Z,70.67
2019-03-16T03:19:34.333Z,70.76
2019-03-16T03:20:14.907Z,70.67
2019-03-16T03:20:55.457Z,70.76
2019-03-16T03:21:36.017Z,71.04
2019-03-16T03:22:16.590Z,70.86
2019-03-16T03:22:57.139Z,70.76
2019-03-16T03:23:37.687Z,70.95
2019-03-16T03:24:18.254Z,70.76
2019-03-16T03:24:58.818Z,71.14
2019-03-16T03:25:39.381Z,71.23
2019-03-16T03:26:19.950Z,71.23
2019-03-16T03:27:00.505Z,71.33
2019-03-16T03:27:41.068Z,71.23
2019-03-16T03:28:21.631Z,71.33
2019-03-16T03:29:02.182Z,71.04
2019-03-16T03:29:42.756Z,71.23
2019-03-16T03:30:23.312Z,71.43
2019-03-16T03:31:03.893Z,71.62
2019-03-16T03:31:44.420Z,71.43
2019-03-16T03:32:24.998Z,71.43
2019-03-16T03:33:05.524Z,71.52
2019-03-16T03:33:59.575Z,71.52
2019-03-16T03:34:26.661Z,71.23
2019-03-16T03:35:07.219Z,71.43
2019-03-16T03:35:47.782Z,71.33
2019-03-16T03:36:28.357Z,71.23
2019-03-16T03:37:08.916Z,71.43
2019-03-16T03:37:49.476Z,71.23
2019-03-16T03:38:30.038Z,71.71
2019-03-16T03:39:10.619Z,72.19
2019-03-16T03:39:51.194Z,71.9
2019-03-16T03:40:31.761Z,71.9
2019-03-16T03:41:12.320Z,71.71
2019-03-16T03:41:52.878Z,71.62
2019-03-16T03:42:33.441Z,71.52
2019-03-16T03:43:14.009Z,71.33
2019-03-16T03:43:54.579Z,71.23
2019-03-16T03:44:35.130Z,71.9
2019-03-16T03:45:15.710Z,71.43
2019-03-16T03:45:56.269Z,71.62
2019-03-16T03:46:36.842Z,71.43
2019-03-16T03:47:17.389Z,71.81
2019-03-16T03:47:57.939Z,71.81
2019-03-16T03:48:38.488Z,71.9
2019-03-16T03:49:19.052Z,71.9
2019-03-16T03:49:59.629Z,71.9
2019-03-16T03:50:40.187Z,71.81
2019-03-16T03:51:20.758Z,71.81
2019-03-16T03:52:01.320Z,71.9
2019-03-16T03:52:41.879Z,71.62
2019-03-16T03:53:22.445Z,71.9
2019-03-16T03:54:03.003Z,72
2019-03-16T03:54:43.554Z,71.9
2019-03-16T03:55:24.119Z,72.19
2019-03-16T03:56:04.692Z,72
2019-03-16T03:56:45.252Z,72.19
2019-03-16T03:57:25.818Z,72
2019-03-16T03:58:06.364Z,72.09
2019-03-16T03:58:46.937Z,72.56
2019-03-16T03:59:27.498Z,72.28
2019-03-16T04:00:08.157Z,72.38
2019-03-16T04:00:48.615Z,72.28
2019-03-16T04:01:29.184Z,72
2019-03-16T04:02:09.753Z,72.38
2019-03-16T04:02:50.314Z,72.66
2019-03-16T04:03:30.877Z,72.85
2019-03-16T04:04:15.482Z,72.66
2019-03-16T04:04:51.982Z,72.66
2019-03-16T04:05:32.536Z,72.75
2019-03-16T04:06:13.105Z,72.47
2019-03-16T04:06:53.674Z,72.85
2019-03-16T04:07:34.230Z,72.66
2019-03-16T04:08:14.799Z,72.85
2019-03-16T04:08:55.350Z,72.66
2019-03-16T04:09:35.903Z,72.56
2019-03-16T04:10:16.474Z,72.56
2019-03-16T04:10:57.009Z,72.85
2019-03-16T04:11:37.575Z,73.04
2019-03-16T04:12:18.132Z,73.14
2019-03-16T04:12:58.697Z,73.14
2019-03-16T04:13:39.256Z,73.14
2019-03-16T04:14:19.842Z,73.23
2019-03-16T04:15:00.461Z,73.42
2019-03-16T04:15:40.967Z,73.23
2019-03-16T04:16:21.524Z,73.23
2019-03-16T04:17:02.083Z,72.95
2019-03-16T04:17:42.652Z,73.33
2019-03-16T04:18:23.195Z,73.33
2019-03-16T04:19:03.748Z,73.23
2019-03-16T04:19:44.392Z,73.33
2019-03-16T04:20:24.966Z,73.14
2019-03-16T04:21:05.536Z,73.14
2019-03-16T04:21:46.090Z,73.33
2019-03-16T04:22:26.674Z,73.23
2019-03-16T04:23:07.225Z,73.33
2019-03-16T04:23:47.773Z,73.33
2019-03-16T04:24:28.319Z,73.23
2019-03-16T04:25:08.875Z,73.23
2019-03-16T04:25:49.428Z,73.33
2019-03-16T04:26:29.978Z,73.04
2019-03-16T04:27:16.158Z,73.23
2019-03-16T04:27:51.116Z,73.33
2019-03-16T04:28:31.665Z,72.95
2019-03-16T04:29:12.233Z,73.23
2019-03-16T04:29:52.792Z,73.23
2019-03-16T04:30:33.362Z,72.95
2019-03-16T04:31:13.921Z,73.14
2019-03-16T04:31:54.475Z,73.71
2019-03-16T04:32:35.040Z,75.51
2019-03-16T04:33:15.592Z,79.69
2019-03-16T04:33:56.155Z,81.02
2019-03-16T04:34:36.713Z,80.68
2019-03-16T04:35:17.264Z,79.06
2019-03-16T04:35:57.817Z,76.88
2019-03-16T04:36:38.369Z,74.41
2019-03-16T04:37:18.916Z,72.89
2019-03-16T04:37:59.490Z,72.41
2019-03-16T04:38:40.067Z,72.32
2019-03-16T04:39:20.626Z,72.51
2019-03-16T04:40:02.023Z,72.32
2019-03-16T04:40:44.569Z,72.13
2019-03-16T04:41:23.131Z,71.94
2019-03-16T04:42:03.695Z,71.75
2019-03-16T04:42:44.274Z,71.94
2019-03-16T04:43:24.823Z,71.66
2019-03-16T04:44:05.383Z,71.66
2019-03-16T04:44:45.949Z,72
2019-03-16T04:45:26.502Z,71.9
2019-03-16T04:46:07.075Z,72.09
2019-03-16T04:46:47.626Z,72.47
2019-03-16T04:47:28.192Z,72.09
2019-03-16T04:48:08.739Z,72.75
2019-03-16T04:48:49.307Z,72.56
2019-03-16T04:49:29.906Z,72.56
2019-03-16T04:50:10.431Z,72.75
2019-03-16T04:50:51.001Z,72.66
2019-03-16T04:51:31.567Z,72.66
2019-03-16T04:52:12.139Z,72.95
2019-03-16T04:52:52.697Z,72.66
2019-03-16T04:53:33.263Z,72.75
2019-03-16T04:54:13.837Z,72.56
2019-03-16T04:54:54.460Z,72.56
2019-03-16T04:55:35.024Z,72.75
2019-03-16T04:56:15.582Z,73.04
2019-03-16T04:56:56.148Z,73.33
2019-03-16T04:57:36.705Z,73.14
2019-03-16T04:58:17.274Z,73.33
2019-03-16T04:58:57.829Z,73.14
2019-03-16T04:59:38.406Z,73.04
2019-03-16T05:00:18.961Z,73.33
2019-03-16T05:00:59.526Z,73.33
2019-03-16T05:01:40.084Z,73.61
2019-03-16T05:02:20.654Z,73.33
2019-03-16T05:03:01.221Z,73.9
2019-03-16T05:03:41.781Z,73.33
2019-03-16T05:04:22.350Z,73.33
2019-03-16T05:05:02.919Z,73.61
2019-03-16T05:05:43.468Z,73.42
2019-03-16T05:06:24.027Z,73.61
2019-03-16T05:07:04.600Z,73.71
2019-03-16T05:07:45.172Z,73.52
2019-03-16T05:08:25.734Z,73.71
2019-03-16T05:09:06.299Z,73.33
2019-03-16T05:09:46.863Z,73.04
2019-03-16T05:10:27.428Z,73.33
2019-03-16T05:11:07.986Z,73.23
2019-03-16T05:11:48.550Z,72.95
2019-03-16T05:12:29.110Z,73.9
2019-03-16T05:13:09.667Z,73.71
2019-03-16T05:13:50.245Z,73.61
2019-03-16T05:14:30.805Z,73.71
2019-03-16T05:15:11.369Z,73.42
2019-03-16T05:15:51.910Z,73.33
2019-03-16T05:16:32.475Z,73.71
2019-03-16T05:17:13.033Z,73.61
2019-03-16T05:17:53.590Z,73.71
2019-03-16T05:18:34.171Z,73.61
2019-03-16T05:19:14.712Z,73.61
2019-03-16T05:19:55.288Z,73.99
2019-03-16T05:20:35.846Z,73.8
2019-03-16T05:21:16.406Z,73.99
2019-03-16T05:21:56.954Z,74.18
2019-03-16T05:22:37.519Z,73.99
2019-03-16T05:23:18.078Z,73.61
2019-03-16T05:23:58.663Z,73.99
2019-03-16T05:24:39.226Z,74.08
2019-03-16T05:25:19.796Z,74.18
2019-03-16T05:26:00.356Z,73.8
2019-03-16T05:26:40.917Z,73.71
2019-03-16T05:27:21.464Z,74.27
2019-03-16T05:28:02.038Z,73.61
2019-03-16T05:28:42.593Z,73.71
2019-03-16T05:29:23.142Z,73.8
2019-03-16T05:30:03.695Z,73.61
2019-03-16T05:30:44.296Z,73.52
2019-03-16T05:31:24.867Z,73.8
2019-03-16T05:32:05.418Z,73.71
2019-03-16T05:32:45.981Z,73.8
2019-03-16T05:33:26.529Z,73.8
2019-03-16T05:34:07.091Z,73.71
2019-03-16T05:34:56.118Z,73.71
2019-03-16T05:35:28.222Z,73.61
2019-03-16T05:36:08.774Z,73.52
2019-03-16T05:36:49.352Z,73.71
2019-03-16T05:37:29.928Z,73.61
2019-03-16T05:38:10.489Z,73.42
2019-03-16T05:38:51.101Z,73.61
2019-03-16T05:39:31.648Z,73.61
2019-03-16T05:40:12.686Z,73.71
2019-03-16T05:40:53.239Z,74.08
2019-03-16T05:41:33.828Z,73.8
2019-03-16T05:42:14.387Z,73.71
2019-03-16T05:42:54.951Z,73.9
2019-03-16T05:43:35.527Z,73.8
2019-03-16T05:44:16.079Z,73.61
2019-03-16T05:44:56.632Z,74.08
2019-03-16T05:45:37.204Z,74.18
2019-03-16T05:46:17.789Z,74.08
2019-03-16T05:46:58.357Z,73.99
2019-03-16T05:47:38.944Z,74.37
2019-03-16T05:48:19.562Z,74.18
2019-03-16T05:49:00.070Z,74.18
2019-03-16T05:49:40.663Z,74.08
2019-03-16T05:50:21.233Z,74.37
2019-03-16T05:51:01.786Z,74.66
2019-03-16T05:51:42.391Z,74.66
2019-03-16T05:52:22.960Z,74.66
2019-03-16T05:53:03.543Z,74.66
2019-03-16T05:53:44.103Z,74.66
2019-03-16T05:54:24.667Z,74.37
2019-03-16T05:55:05.216Z,74.75
2019-03-16T05:55:45.777Z,74.56
2019-03-16T05:56:26.341Z,74.37
2019-03-16T05:57:06.908Z,74.66
2019-03-16T05:57:47.526Z,74.66
2019-03-16T05:58:28.085Z,74.56
2019-03-16T05:59:08.647Z,74.75
2019-03-16T05:59:49.224Z,74.47
2019-03-16T06:00:29.803Z,74.66
2019-03-16T06:01:10.371Z,74.56
2019-03-16T06:01:50.945Z,74.47
2019-03-16T06:02:31.498Z,74.56
2019-03-16T06:03:12.064Z,74.47
2019-03-16T06:03:52.634Z,74.56
2019-03-16T06:04:33.208Z,74.47
2019-03-16T06:05:13.764Z,74.56
2019-03-16T06:05:54.343Z,74.56
2019-03-16T06:06:34.922Z,74.27
2019-03-16T06:07:15.491Z,74.56
2019-03-16T06:07:56.067Z,74.08
2019-03-16T06:08:36.630Z,73.99
2019-03-16T06:09:17.202Z,73.71
2019-03-16T06:09:57.770Z,73.42
2019-03-16T06:10:38.342Z,73.99
2019-03-16T06:11:18.926Z,73.42
2019-03-16T06:11:59.478Z,73.61
2019-03-16T06:12:40.249Z,73.52
2019-03-16T06:13:20.977Z,73.61
2019-03-16T06:14:01.538Z,74.08
2019-03-16T06:14:42.102Z,74.47
2019-03-16T06:15:22.688Z,74.37
2019-03-16T06:16:03.256Z,74.27
2019-03-16T06:16:43.809Z,74.08
2019-03-16T06:17:24.357Z,73.8
2019-03-16T06:18:04.916Z,73.71
2019-03-16T06:18:45.479Z,73.61
2019-03-16T06:19:26.034Z,73.8
2019-03-16T06:20:06.585Z,73.71
2019-03-16T06:20:47.154Z,73.71
2019-03-16T06:21:27.708Z,73.8
2019-03-16T06:22:08.327Z,73.74
2019-03-16T06:22:48.887Z,73.74
2019-03-16T06:23:29.429Z,73.61
2019-03-16T06:24:10.002Z,73.8
2019-03-16T06:24:50.583Z,73.42
2019-03-16T06:25:31.134Z,73.65
2019-03-16T06:26:11.696Z,73.71
2019-03-16T06:26:52.259Z,73.74
2019-03-16T06:27:32.832Z,73.04
2019-03-16T06:28:13.396Z,73.08
2019-03-16T06:28:53.964Z,73.36
2019-03-16T06:29:34.544Z,73.52
2019-03-16T06:30:15.127Z,73.55
2019-03-16T06:30:55.675Z,73.84
2019-03-16T06:31:36.238Z,73.18
2019-03-16T06:32:16.795Z,73.55
2019-03-16T06:32:57.364Z,73.46
2019-03-16T06:33:37.931Z,73.42
2019-03-16T06:34:18.506Z,73.46
2019-03-16T06:34:59.055Z,73.65
2019-03-16T06:35:39.698Z,73.46
2019-03-16T06:36:20.332Z,73.84
2019-03-16T06:37:00.880Z,73.36
2019-03-16T06:37:41.421Z,73.36
2019-03-16T06:38:21.983Z,73.18
2019-03-16T06:39:02.533Z,73.36
2019-03-16T06:39:43.090Z,73.46
2019-03-16T06:40:23.649Z,73.27
2019-03-16T06:41:04.215Z,73.71
2019-03-16T06:41:44.878Z,73.65
2019-03-16T06:42:25.445Z,73.33
2019-03-16T06:43:06.005Z,73.74
2019-03-16T06:43:46.596Z,73.84
2019-03-16T06:44:27.155Z,73.84
2019-03-16T06:45:07.703Z,73.84
2019-03-16T06:45:48.293Z,73.65
2019-03-16T06:46:28.856Z,73.18
2019-03-16T06:47:09.411Z,73.36
2019-03-16T06:47:49.962Z,73.36
2019-03-16T06:48:30.522Z,73.93
2019-03-16T06:49:11.088Z,73.84
2019-03-16T06:49:51.638Z,73.36
2019-03-16T06:50:32.196Z,73.46
2019-03-16T06:51:12.753Z,73.27
2019-03-16T06:51:53.303Z,73.65
2019-03-16T06:52:33.864Z,73.84
2019-03-16T06:53:14.466Z,73.74
2019-03-16T06:53:55.048Z,73.46
2019-03-16T06:54:35.598Z,73.46
2019-03-16T06:55:16.162Z,73.65
2019-03-16T06:55:56.775Z,73.36
2019-03-16T06:56:37.339Z,73.55
2019-03-16T06:57:17.911Z,73.65
2019-03-16T06:57:58.466Z,73.65
2019-03-16T06:58:39.028Z,73.46
2019-03-16T06:59:19.598Z,73.65
2019-03-16T07:00:00.157Z,73.27
2019-03-16T07:00:40.723Z,73.36
2019-03-16T07:01:21.285Z,72.89
2019-03-16T07:02:01.868Z,73.27
2019-03-16T07:02:42.466Z,72.79
2019-03-16T07:03:23.007Z,72.7
2019-03-16T07:04:03.565Z,72.6
2019-03-16T07:04:44.125Z,72.79
2019-03-16T07:05:37.219Z,72.79
2019-03-16T07:06:05.932Z,72.7
2019-03-16T07:06:46.499Z,72.89
2019-03-16T07:07:27.068Z,72.89
2019-03-16T07:08:07.626Z,73.08
2019-03-16T07:08:48.195Z,73.08
2019-03-16T07:09:28.749Z,72.89
2019-03-16T07:10:09.311Z,72.79
2019-03-16T07:10:49.988Z,73.36
2019-03-16T07:11:30.824Z,72.89
2019-03-16T07:12:11.376Z,72.89
2019-03-16T07:12:51.937Z,72.79
2019-03-16T07:13:33.030Z,72.41
2019-03-16T07:14:13.749Z,72.7
2019-03-16T07:14:54.327Z,72.89
2019-03-16T07:15:34.885Z,72.41
2019-03-16T07:16:15.444Z,72.32
2019-03-16T07:17:01.725Z,72.22
2019-03-16T07:17:36.561Z,71.84
2019-03-16T07:18:17.131Z,71.66
2019-03-16T07:18:58.890Z,71.66
2019-03-16T07:19:38.260Z,71.94
2019-03-16T07:20:19.142Z,71.94
2019-03-16T07:20:59.703Z,71.94
2019-03-16T07:21:40.283Z,72.51
2019-03-16T07:22:20.994Z,71.94
2019-03-16T07:23:01.582Z,72.41
2019-03-16T07:23:42.138Z,72.51
2019-03-16T07:24:22.713Z,72.41
2019-03-16T07:25:03.273Z,72.41
2019-03-16T07:25:43.830Z,71.78
2019-03-16T07:26:24.432Z,72.26
2019-03-16T07:27:04.996Z,72.22
2019-03-16T07:27:45.563Z,72.35
2019-03-16T07:28:26.190Z,72.55
2019-03-16T07:29:06.707Z,72.35
2019-03-16T07:29:47.276Z,71.97
2019-03-16T07:30:27.842Z,72.45
2019-03-16T07:31:08.409Z,72.64
2019-03-16T07:31:48.965Z,72.26
2019-03-16T07:32:31.555Z,72.16
2019-03-16T07:33:13.309Z,71.69
2019-03-16T07:33:56.695Z,71.41
2019-03-16T07:34:37.110Z,71.22
2019-03-16T07:35:18.535Z,71.31
2019-03-16T07:35:59.182Z,71.31
2019-03-16T07:36:39.763Z,71.59
2019-03-16T07:37:20.325Z,70.64
2019-03-16T07:38:00.892Z,70.74
2019-03-16T07:38:41.454Z,70.36
2019-03-16T07:39:22.010Z,70.36
2019-03-16T07:40:02.569Z,71.02
2019-03-16T07:40:43.121Z,70.93
2019-03-16T07:41:23.677Z,69.98
2019-03-16T07:42:04.235Z,69.98
2019-03-16T07:42:44.808Z,70.45
2019-03-16T07:43:25.371Z,70.54
2019-03-16T07:44:05.939Z,70.58
2019-03-16T07:44:46.539Z,70.39
2019-03-16T07:45:27.114Z,70.2
2019-03-16T07:46:07.767Z,69.54
2019-03-16T07:46:48.430Z,69.15
2019-03-16T07:47:29.036Z,69.06
2019-03-16T07:48:09.590Z,68.68
2019-03-16T07:48:50.149Z,68.59
2019-03-16T07:49:30.721Z,68.59
2019-03-16T07:50:11.291Z,68.49
2019-03-16T07:50:51.870Z,68.68
2019-03-16T07:51:32.439Z,68.68
2019-03-16T07:52:12.982Z,68.49
2019-03-16T07:52:53.555Z,68.21
2019-03-16T07:53:34.116Z,68.01
2019-03-16T07:54:14.672Z,68.3
2019-03-16T07:54:55.231Z,68.59
2019-03-16T07:55:35.819Z,68.49
2019-03-16T07:56:16.448Z,68.3
2019-03-16T07:56:57.011Z,68.11
2019-03-16T07:57:40.294Z,68.3
2019-03-16T07:58:18.163Z,68.21
2019-03-16T07:58:58.729Z,67.92
2019-03-16T07:59:39.295Z,68.4
2019-03-16T08:00:19.864Z,68.11
2019-03-16T08:01:03.221Z,68.11
2019-03-16T08:01:40.986Z,68.11
2019-03-16T08:02:21.568Z,67.82
2019-03-16T08:03:02.190Z,67.92
2019-03-16T08:03:42.730Z,68.4
2019-03-16T08:04:23.305Z,68.68
2019-03-16T08:05:16.821Z,68.59
2019-03-16T08:05:44.452Z,68.59
2019-03-16T08:06:25.015Z,69.35
2019-03-16T08:07:05.682Z,69.35
2019-03-16T08:07:46.507Z,69.06
2019-03-16T08:08:27.146Z,69.06
2019-03-16T08:09:07.745Z,68.96
2019-03-16T08:09:48.298Z,69.15
2019-03-16T08:10:28.875Z,69.25
2019-03-16T08:11:09.425Z,69.15
2019-03-16T08:11:49.986Z,69.73
2019-03-16T08:12:32.479Z,69.54
2019-03-16T08:13:11.295Z,69.92
2019-03-16T08:13:51.846Z,70.01
2019-03-16T08:14:32.625Z,69.15
2019-03-16T08:15:13.785Z,69.15
2019-03-16T08:15:54.365Z,68.49
2019-03-16T08:16:34.962Z,68.87
2019-03-16T08:17:15.522Z,68.49
2019-03-16T08:17:56.090Z,68.81
2019-03-16T08:18:36.661Z,68.62
2019-03-16T08:19:17.226Z,68.05
2019-03-16T08:19:57.791Z,68.05
2019-03-16T08:20:38.355Z,68.3
2019-03-16T08:21:18.927Z,68.15
2019-03-16T08:21:59.799Z,67.38
2019-03-16T08:22:40.465Z,67.76
2019-03-16T08:23:21.035Z,67.1
2019-03-16T08:24:01.599Z,67.1
2019-03-16T08:24:42.153Z,67.07
2019-03-16T08:25:22.720Z,67.35
2019-03-16T08:26:03.298Z,67.63
2019-03-16T08:26:44.378Z,67.92
2019-03-16T08:27:24.948Z,68.11
2019-03-16T08:28:05.510Z,67.92
2019-03-16T08:28:46.102Z,68.21
2019-03-16T08:29:26.664Z,68.01
2019-03-16T08:30:07.217Z,67.92
2019-03-16T08:30:47.780Z,68.01
2019-03-16T08:31:28.349Z,68.59
2019-03-16T08:32:09.125Z,68.87
2019-03-16T08:32:49.686Z,68.59
2019-03-16T08:33:30.247Z,68.87
2019-03-16T08:34:10.810Z,68.87
2019-03-16T08:34:51.375Z,68.68
2019-03-16T08:35:31.932Z,68.77
2019-03-16T08:36:12.494Z,70.97
2019-03-16T08:36:53.063Z,72.67
2019-03-16T08:37:33.614Z,71.44
2019-03-16T08:38:14.178Z,71.53
2019-03-16T08:38:54.830Z,72.14
2019-03-16T08:39:35.366Z,72.24
2019-03-16T08:40:16.195Z,70.05
2019-03-16T08:40:56.767Z,67.86
2019-03-16T08:41:37.320Z,67.1
2019-03-16T08:42:17.881Z,67.07
2019-03-16T08:42:58.433Z,67.47
2019-03-16T08:43:39.048Z,67.35
2019-03-16T08:44:19.614Z,67.07
2019-03-16T08:45:00.466Z,67.16
2019-03-16T08:45:41.672Z,67.63